Home > Products > Valid Products > TAF

000
FTUS41 KPBZ 311700
TAFZZV
TAF
KZZV 311740Z 3118/0118 20005KT P6SM BKN015 OVC040
     FM311900 22006KT 4SM -RA BR BKN012 OVC020
     FM312100 VRB05KT 2SM -RA BR OVC010
     FM010400 34006KT 3SM -RA BR BKN015 OVC025
     FM010900 35008KT 6SM -RA BR BKN015 OVC025=



000
FTUS41 KPBZ 311700
TAFDUJ
TAF
KDUJ 311740Z 3118/0118 VRB05KT P6SM -RA BKN025 OVC040
     FM010000 VRB05KT 4SM -RA BR BKN015 OVC025
     FM010400 07005KT 6SM -RA BR BKN025 OVC035
     FM011300 02010G18KT P6SM VCSH BKN025 BKN050=



000
FTUS41 KPBZ 311700
TAFAGC
TAF
KAGC 311740Z 3118/0118 26004KT P6SM -RA BKN025 OVC035
     FM312300 06005KT 2SM -RA BR BKN015 OVC025
     FM010200 VRB04KT 5SM -RA BR BKN010 OVC025
     FM011300 36010G15KT P6SM VCSH SCT015 BKN030=



000
FTUS41 KPBZ 311700
TAFMGW
TAF
KMGW 311740Z 3118/0118 VRB03KT P6SM -RA OVC040
     FM312100 VRB04KT 3SM -RA BR OVC025
     FM312300 VRB05KT 2SM -RA BR BKN015 OVC025
     FM010300 36004KT 4SM -RA BR BKN015 OVC025
     FM011000 02008KT P6SM VCSH BKN035 OVC050=



000
FTUS41 KPBZ 311700
TAFBVI
TAF
KBVI 311740Z 3118/0118 VRB04KT P6SM -RA BKN018 OVC025
     FM312200 VRB05KT 2SM -RA BR BKN012 OVC020
     FM010100 VRB04KT 5SM -RA BR BKN010 OVC025
     FM011300 36010G20KT P6SM VCSH BKN015 BKN025=



000
FTUS41 KPBZ 311700
TAFLBE
TAF
KLBE 311740Z 3118/0118 26005KT P6SM -RA SCT035 OVC050
     FM312100 VRB04KT 5SM -RA OVC025
     FM010000 VRB04KT 2SM -RA BR BKN015 OVC025
     FM010300 04005KT 5SM -RA BR BKN010 OVC020
     FM011300 01010G15KT P6SM VCSH SCT015 BKN025=



000
FTUS41 KPBZ 311700
TAFHLG
TAF
KHLG 311740Z 3118/0118 18005KT P6SM -RA BKN015 OVC025
     FM312200 VRB04KT 2SM -RA BR BKN015 OVC025
     FM010300 03006KT 5SM -RA BR BKN010 OVC020
     FM011300 36010G20KT P6SM VCSH BKN015 BKN025=



000
FTUS41 KPBZ 311700
TAFPIT
TAF
KPIT 311740Z 3118/0124 24004KT P6SM -RA BKN025 OVC035
     FM312200 06004KT 2SM -RA BR BKN015 OVC025
     FM010100 VRB05KT 5SM -RA BR BKN010 OVC025
     FM011300 36010G20KT P6SM VCSH SCT015 BKN025=



000
FTUS41 KPBZ 311600 AAB
TAFPIT
TAF AMD
KPIT 311644Z 3117/0118 19004KT P6SM -RA BKN025 OVC035
     FM311900 21004KT 4SM -RA OVC025
     FM312200 24004KT 2SM -RA BR BKN015 OVC025
     FM010100 26008KT 5SM -RA BKN015 OVC025
     FM011400 35010G20KT P6SM VCSH BKN025=



000
FTUS41 KPBZ 311600 AAB
TAFPIT
TAF AMD
KPIT 311644Z 3117/0118 19004KT P6SM -RA BKN025 OVC035
     FM311900 21004KT 4SM -RA OVC025
     FM312200 24004KT 2SM -RA BR BKN015 OVC025
     FM010100 26008KT 5SM -RA BKN015 OVC025
     FM011400 35010G20KT P6SM VCSH BKN025=



000
FTUS41 KPBZ 311400 AAA
TAFPIT
TAF AMD
KPIT 311451Z 3115/0118 20003KT P6SM OVC040
     FM311600 19004KT P6SM -RA BKN035 OVC040
     FM311900 21004KT 4SM -RA OVC025
     FM312200 24004KT 2SM -RA BR BKN015 OVC025
     FM010100 26008KT 5SM -RA BKN015 OVC025
     FM011400 35010G20KT P6SM VCSH BKN025=



000
FTUS41 KPBZ 311100
TAFBVI
TAF
KBVI 311120Z 3112/0112 VRB03KT P6SM OVC050
     FM311800 21004KT 4SM -RA OVC025
     FM010200 26004KT 2SM -RA BR BKN015 OVC025=



000
FTUS41 KPBZ 311100
TAFMGW
TAF
KMGW 311120Z 3112/0112 23002KT P6SM OVC040
     FM312100 17004KT 4SM -RA OVC025
     FM010200 25005KT 2SM -RA BR BKN015 OVC025=



000
FTUS41 KPBZ 311100
TAFAGC
TAF
KAGC 311120Z 3112/0112 VRB03KT P6SM OVC050
     FM311800 21004KT 4SM -RA OVC025
     FM010200 26004KT 2SM -RA BR BKN015 OVC025=



000
FTUS41 KPBZ 311100
TAFPIT
TAF
KPIT 311120Z 3112/0118 20003KT P6SM OVC040
     FM311800 21004KT 4SM -RA OVC025
     FM010200 26004KT 2SM -RA BR BKN015 OVC025
     FM011400 35010G15KT 4SM -RA BR BKN025=



000
FTUS41 KPBZ 311100
TAFLBE
TAF
KLBE 311120Z 3112/0112 20003KT P6SM OVC040
     FM312000 21004KT 4SM -RA OVC025
     FM010000 26004KT 2SM -RA BR BKN015 OVC025=



000
FTUS41 KPBZ 311100
TAFZZV
TAF
KZZV 311120Z 3112/0112 23002KT P6SM OVC050
     FM311600 24005KT 4SM -RA OVC025
     FM010000 27006KT 3SM -RA BR BKN015 OVC025
     FM010200 27007KT 2SM -RA BR OVC010
     FM010800 27006KT 3SM -RA BR BKN015 OVC025=



000
FTUS41 KPBZ 311100
TAFDUJ
TAF
KDUJ 311120Z 3112/0112 20004KT P6SM OVC040
     FM311700 20005KT 4SM -RA OVC025
     FM010300 27007KT 2SM -RA BR BKN015 OVC025=



000
FTUS41 KPBZ 311100
TAFHLG
TAF
KHLG 311120Z 3112/0112 VRB03KT P6SM OVC050
     FM311700 18005KT 4SM -RA OVC025
     FM010200 26004KT 2SM -RA BR BKN015 OVC025=



000
FTUS41 KPBZ 310800 AAA
TAFPIT
TAF AMD
KPIT 310856Z 3109/0112 20003KT P6SM OVC040
     FM311800 21004KT 4SM -RA OVC025
     FM010200 26004KT 3SM -RA BR BKN015 OVC025=



000
FTUS41 KPBZ 310500
TAFBVI
TAF
KBVI 310520Z 3106/0106 VRB03KT P6SM OVC050
     FM311800 21004KT 4SM -RA OVC025
     FM010200 26004KT 3SM -RA BR BKN015 OVC025
      AMD NOT SKED=



000
FTUS41 KPBZ 310500
TAFLBE
TAF
KLBE 310520Z 3106/0106 26003KT P6SM FEW035 OVC050
     FM310900 20003KT P6SM OVC040
     FM312000 21004KT 4SM -RA OVC025
     FM010000 26004KT 3SM -RA BR BKN015 OVC025=



000
FTUS41 KPBZ 310500
TAFMGW
TAF
KMGW 310520Z 3106/0106 23002KT P6SM OVC040
     FM312100 17004KT 4SM -RA OVC025
     FM010200 25005KT 3SM -RA BR BKN015 OVC025=



000
FTUS41 KPBZ 310500
TAFDUJ
TAF
KDUJ 310520Z 3106/0106 25002KT P6SM OVC040
     FM311000 20004KT P6SM OVC030
     FM311700 20005KT 4SM -RA OVC025
     FM010300 27007KT 3SM -RA BR BKN015 OVC025=



000
FTUS41 KPBZ 310500
TAFZZV
TAF
KZZV 310520Z 3106/0106 23002KT P6SM OVC050
     FM311600 24005KT 4SM -RA OVC025
     FM010000 27007KT 3SM -RA BR BKN015 OVC025=



000
FTUS41 KPBZ 310500
TAFPIT
TAF
KPIT 310520Z 3106/0112 26002KT P6SM OVC040
     FM310900 20003KT P6SM OVC040
     FM311800 21004KT 4SM -RA OVC025
     FM010200 26004KT 3SM -RA BR BKN015 OVC025=



000
FTUS41 KPBZ 310500
TAFAGC
TAF
KAGC 310520Z 3106/0106 VRB03KT P6SM OVC050
     FM311800 21004KT 4SM -RA OVC025
     FM010200 26004KT 3SM -RA BR BKN015 OVC025=



000
FTUS41 KPBZ 310500
TAFHLG
TAF
KHLG 310520Z 3106/0106 VRB03KT P6SM OVC050
     FM311700 18005KT 4SM -RA OVC025
     FM010200 26004KT 3SM -RA BR BKN015 OVC025=



000
FTUS41 KPBZ 310200 AAA
TAFPIT
TAF AMD
KPIT 310230Z 3103/0106 26003KT P6SM OVC040
     FM310900 20003KT P6SM OVC040
     FM311800 19005KT 4SM -RA OVC025=



000
FTUS41 KPBZ 302300
TAFLBE
TAF
KLBE 302322Z 3100/3124 26003KT P6SM OVC040
     FM310900 20003KT P6SM OVC040
     FM312000 17004KT 4SM -RA OVC025=



000
FTUS41 KPBZ 302300
TAFDUJ
TAF
KDUJ 302322Z 3100/3124 26002KT P6SM OVC040
     FM311000 20004KT P6SM OVC030
     FM311800 20005KT 4SM -RA OVC025=



000
FTUS41 KPBZ 302300
TAFPIT
TAF
KPIT 302322Z 3100/0106 26003KT P6SM OVC040
     FM310900 20003KT P6SM OVC040
     FM311800 18005KT 4SM -RA OVC025=



000
FTUS41 KPBZ 302300
TAFMGW
TAF
KMGW 302322Z 3100/3124 23002KT P6SM OVC040
     FM312000 17004KT 4SM -RA OVC025=



000
FTUS41 KPBZ 302300
TAFBVI
TAF
KBVI 302322Z 3100/3124 26003KT P6SM OVC040
     FM310900 20003KT P6SM OVC040
     FM311800 18005KT 4SM -RA OVC025
      AMD NOT SKED 3101/3111=



000
FTUS41 KPBZ 302300
TAFAGC
TAF
KAGC 302322Z 3100/3124 26003KT P6SM OVC040
     FM310900 20003KT P6SM OVC040
     FM311800 18005KT 4SM -RA OVC025=



000
FTUS41 KPBZ 302300
TAFHLG
TAF
KHLG 302322Z 3100/3124 26004KT P6SM OVC040
     FM310900 20003KT P6SM OVC040
     FM311800 18005KT 4SM -RA OVC025=



000
FTUS41 KPBZ 302300
TAFZZV
TAF
KZZV 302322Z 3100/3124 23002KT P6SM OVC040
     FM311600 24005KT 4SM -RA OVC025=



000
FTUS41 KPBZ 302000 AAB
TAFPIT
TAF AMD
KPIT 302055Z 3021/3124 28004KT P6SM OVC040
     FM310600 22005KT P6SM OVC040
     FM311800 17004KT 5SM -RA OVC025=



000
FTUS41 KPBZ 301700 AAA
TAFAGC
TAF AMD
KAGC 301758Z 3018/3118 29005KT P6SM OVC040
     FM310600 22005KT P6SM OVC040=



000
FTUS41 KPBZ 301700 AAA
TAFHLG
TAF AMD
KHLG 301757Z 3018/3118 29005KT P6SM SCT025 BKN040
     FM310600 22005KT P6SM OVC040=



000
FTUS41 KPBZ 301700 AAA
TAFLBE
TAF AMD
KLBE 301756Z 3018/3118 28006KT P6SM OVC040
     FM310800 23005KT P6SM OVC040=



000
FTUS41 KPBZ 301700 AAA
TAFPIT
TAF AMD
KPIT 301754Z 3018/3124 29004KT P6SM OVC040
     FM310600 22005KT P6SM OVC040
     FM311800 17004KT 5SM -RA OVC025=



000
FTUS41 KPBZ 301700
TAFAGC
TAF
KAGC 301726Z 3018/3118 31005KT P6SM BKN025
     FM302000 29005KT P6SM BKN035
     FM310600 22005KT P6SM OVC040=



000
FTUS41 KPBZ 301700
TAFZZV
TAF
KZZV 301726Z 3018/3118 25004KT P6SM SCT030 BKN040
     FM310600 22005KT P6SM OVC040
     FM311700 20006KT 4SM -SHRA BKN025=



000
FTUS41 KPBZ 301700
TAFMGW
TAF
KMGW 301726Z 3018/3118 28005KT P6SM SCT030 BKN040
     FM310600 23005KT P6SM OVC040=



000
FTUS41 KPBZ 301700
TAFLBE
TAF
KLBE 301726Z 3018/3118 30004KT P6SM BKN025
     FM302000 28004KT P6SM BKN035
     FM310800 23005KT P6SM OVC040=



000
FTUS41 KPBZ 301700
TAFDUJ
TAF
KDUJ 301726Z 3018/3118 28005KT P6SM SCT025 BKN035
     FM310800 22005KT P6SM OVC040=



000
FTUS41 KPBZ 301700
TAFHLG
TAF
KHLG 301726Z 3018/3118 28005KT P6SM SCT025 BKN035
      TEMPO 3018/3020 31008KT BKN025
     FM310600 22005KT P6SM OVC040=



000
FTUS41 KPBZ 301700
TAFBVI
TAF
KBVI 301726Z 3018/3118 31005KT P6SM SCT025 BKN035
     FM310600 22005KT P6SM OVC040
     FM311700 17004KT 5SM -RA OVC025=



000
FTUS41 KPBZ 301700
TAFPIT
TAF
KPIT 301726Z 3018/3124 31005KT P6SM BKN025
     FM302000 29005KT P6SM BKN035
     FM310600 22005KT P6SM OVC040
     FM311800 17004KT 5SM -RA OVC025=



000
FTUS41 KPBZ 301600 AAB
TAFPIT
TAF AMD
KPIT 301621Z 3016/3118 34005KT P6SM BKN020
     FM301800 30005KT P6SM BKN035
     FM310600 23005KT P6SM OVC040=



000
FTUS41 KPBZ 301600 AAB
TAFPIT
TAF AMD
KPIT 301621Z 3016/3118 34005KT P6SM BKN020
     FM301800 30005KT P6SM BKN035
     FM310600 23005KT P6SM OVC040=



000
FTUS41 KPBZ 301600 AAA
TAFHLG
TAF AMD
KHLG 301619Z 3016/3112 26005KT P6SM BKN022
     FM301800 29007KT P6SM BKN035
     FM310600 23005KT P6SM OVC040=



000
FTUS41 KPBZ 301600 AAA
TAFZZV
TAF AMD
KZZV 301619Z 3016/3112 28005KT P6SM BKN025
     FM301800 27004KT P6SM BKN035
     FM310300 23005KT P6SM OVC040=



000
FTUS41 KPBZ 301600 AAA
TAFMGW
TAF AMD
KMGW 301600Z 3016/3112 28005KT P6SM BKN025
     FM301800 27005KT P6SM BKN035
     FM310600 23005KT P6SM OVC040=



000
FTUS41 KPBZ 301500 AAA
TAFAGC
TAF AMD
KAGC 301559Z 3016/3112 29005KT P6SM SCT022 BKN050
      TEMPO 3016/3018 BKN022
     FM301800 28004KT P6SM BKN035
     FM310600 23005KT P6SM OVC040=



000
FTUS41 KPBZ 301500 AAB
TAFBVI
TAF AMD
KBVI 301559Z 3016/3112 32004KT P6SM SCT022 BKN050
      TEMPO 3016/3018 BKN022
     FM301800 29006KT P6SM BKN035
     FM310600 23005KT P6SM OVC040=



000
FTUS41 KPBZ 301500 AAA
TAFLBE
TAF AMD
KLBE 301503Z 3015/3112 26008KT P6SM BKN020
     FM301800 25006KT P6SM BKN030
     FM310600 23005KT P6SM OVC040=



000
FTUS41 KPBZ 301500 AAB
TAFDUJ
TAF AMD
KDUJ 301501Z 3015/3112 30008KT P6SM BKN022
     FM302000 29006KT P6SM BKN035
     FM310900 23005KT P6SM OVC030=



000
FTUS41 KPBZ 301400 AAA
TAFBVI
TAF AMD
KBVI 301459Z 3015/3112 29005KT P6SM SCT015 BKN025
      TEMPO 3015/3017 BKN015
     FM301900 29006KT P6SM BKN035
     FM310600 23005KT P6SM OVC040=



000
FTUS41 KPBZ 301400 AAA
TAFPIT
TAF AMD
KPIT 301458Z 3015/3118 29005KT P6SM SCT022 BKN050
      TEMPO 3015/3017 BKN022
     FM301700 29006KT P6SM BKN035
     FM310600 23005KT P6SM OVC040=



000
FTUS41 KPBZ 301400 AAA
TAFDUJ
TAF AMD
KDUJ 301425Z 3014/3112 32007KT P6SM BKN018
     FM301600 31007KT P6SM SCT015 BKN025
     FM302000 29006KT P6SM BKN035
     FM310900 23005KT P6SM OVC030=



000
FTUS41 KPBZ 301100 RRA
TAFDUJ
TAF
KDUJ 301150Z 3012/3112 27006KT P6SM BKN010
     FM301400 28007KT P6SM SCT015 BKN025
     FM301800 31006KT P6SM BKN035
     FM310900 23005KT P6SM OVC030=



000
FTUS41 KPBZ 301100
TAFDUJ
TAF
KDUJ 301122Z 3012/3112 28006KT P6SM SCT015 BKN025
     FM301600 31006KT P6SM BKN035
     FM310900 23005KT P6SM OVC030=



000
FTUS41 KPBZ 301100
TAFHLG
TAF
KHLG 301122Z 3012/3112 26005KT P6SM SCT050
     FM301500 29007KT P6SM BKN035
     FM310600 23005KT P6SM OVC040=



000
FTUS41 KPBZ 301100
TAFBVI
TAF
KBVI 301122Z 3012/3112 27005KT P6SM BKN050
     FM301500 29006KT P6SM BKN030
     FM310600 23005KT P6SM OVC040=



000
FTUS41 KPBZ 301100
TAFAGC
TAF
KAGC 301122Z 3012/3112 26007KT P6SM BKN060
     FM301500 29006KT P6SM BKN035
     FM310600 23005KT P6SM OVC040=



000
FTUS41 KPBZ 301100
TAFZZV
TAF
KZZV 301122Z 3012/3112 29006KT P6SM SCT040
     FM310300 23005KT P6SM OVC040=



000
FTUS41 KPBZ 301100
TAFMGW
TAF
KMGW 301122Z 3012/3112 23006KT P6SM BKN025
     FM301500 29006KT P6SM BKN040
     FM310600 23005KT P6SM OVC040=



000
FTUS41 KPBZ 301100
TAFPIT
TAF
KPIT 301122Z 3012/3118 27005KT P6SM BKN050
     FM301500 29006KT P6SM BKN035
     FM310600 23005KT P6SM OVC040=



000
FTUS41 KPBZ 301100
TAFLBE
TAF
KLBE 301122Z 3012/3112 23006KT P6SM BKN025
     FM301500 29006KT P6SM BKN035
     FM310600 23005KT P6SM OVC040=



000
FTUS41 KPBZ 301100 AAB
TAFDUJ
TAF AMD
KDUJ 301103Z 3011/3106 28006KT P6SM BKN025
     FM301600 31006KT P6SM BKN035=



000
FTUS41 KPBZ 301100 AAB
TAFDUJ
TAF AMD
KDUJ 301103Z 3011/3106 28006KT P6SM BKN025
     FM301600 31006KT P6SM BKN035=



000
FTUS41 KPBZ 300800 AAA
TAFPIT
TAF AMD
KPIT 300851Z 3009/3112 31010KT P6SM SCT050
     FM301700 28008KT P6SM BKN035=



000
FTUS41 KPBZ 300800 AAA
TAFDUJ
TAF AMD
KDUJ 300820Z 3008/3106 29008KT P6SM OVC050
      TEMPO 3008/3011 P6SM BKN015 OVC025
     FM301600 31006KT P6SM BKN035=



000
FTUS41 KPBZ 300800 AAA
TAFHLG
TAF AMD
KHLG 300818Z 3008/3106 26005KT P6SM SKC
     FM301200 26006KT P6SM SCT050
     FM301700 27008KT P6SM BKN035=



000
FTUS41 KPBZ 300800 AAA
TAFAGC
TAF AMD
KAGC 300817Z 3008/3106 29006KT P6SM SCT050
     FM301700 28008KT P6SM BKN035=



000
FTUS41 KPBZ 300500
TAFZZV
TAF
KZZV 300526Z 3006/3106 28010KT P6SM SKC
     FM300700 26005KT P6SM BKN050
     FM301700 27008KT P6SM BKN035=



000
FTUS41 KPBZ 300500
TAFBVI
TAF
KBVI 300526Z 3006/3106 29006KT P6SM OVC050
      TEMPO 3008/3011 P6SM BKN025
     FM301800 28008KT P6SM BKN035
      AMD NOT SKED=



000
FTUS41 KPBZ 300500
TAFPIT
TAF
KPIT 300526Z 3006/3112 31010KT P6SM BKN050
      TEMPO 3008/3010 P6SM BKN025
     FM301700 28008KT P6SM BKN035=



000
FTUS41 KPBZ 300500
TAFHLG
TAF
KHLG 300526Z 3006/3106 28010KT P6SM SKC
     FM300700 26005KT P6SM BKN050
      TEMPO 3008/3010 P6SM BKN025
     FM301700 27008KT P6SM BKN035=



000
FTUS41 KPBZ 300500
TAFDUJ
TAF
KDUJ 300526Z 3006/3106 29008KT P6SM OVC050
      TEMPO 3006/3008 P6SM BKN015 OVC025
     FM300800 30007KT P6SM BKN025
     FM301600 31006KT P6SM BKN035=



000
FTUS41 KPBZ 300500
TAFMGW
TAF
KMGW 300526Z 3006/3106 28008KT P6SM BKN050
     FM301500 26008KT P6SM BKN035=



000
FTUS41 KPBZ 300500
TAFAGC
TAF
KAGC 300526Z 3006/3106 29004KT P6SM BKN050
      TEMPO 3008/3011 P6SM BKN025
     FM301700 28008KT P6SM BKN035=



000
FTUS41 KPBZ 300500
TAFLBE
TAF
KLBE 300526Z 3006/3106 28004KT P6SM OVC050
      TEMPO 3009/3012 P6SM BKN025
     FM301800 28008KT P6SM BKN035=



000
FTUS41 KPBZ 300200 AAA
TAFPIT
TAF AMD
KPIT 300223Z 3002/3106 29006KT P6SM OVC050
     FM301700 28008KT P6SM BKN035=



000
FTUS41 KPBZ 292300
TAFDUJ
TAF
KDUJ 292320Z 3000/3024 27010KT P6SM OVC050
     FM300500 29006KT P6SM OVC025
     FM301800 31006KT P6SM BKN035=



000
FTUS41 KPBZ 292300
TAFZZV
TAF
KZZV 292320Z 3000/3024 28006KT P6SM OVC050
     FM301700 27006KT P6SM BKN035=



000
FTUS41 KPBZ 292300
TAFBVI
TAF
KBVI 292320Z 3000/3024 29008KT P6SM OVC050
     FM301800 28008KT P6SM BKN035
      AMD NOT SKED 3001/3011=



000
FTUS41 KPBZ 292300
TAFHLG
TAF
KHLG 292320Z 3000/3024 28010KT P6SM OVC050
     FM301700 27008KT P6SM BKN035=



000
FTUS41 KPBZ 292300
TAFMGW
TAF
KMGW 292320Z 3000/3024 28008KT P6SM BKN035=



000
FTUS41 KPBZ 292300
TAFAGC
TAF
KAGC 292320Z 3000/3024 30008KT P6SM OVC050
     FM301700 28008KT P6SM BKN035=



000
FTUS41 KPBZ 292300
TAFLBE
TAF
KLBE 292320Z 3000/3024 29008KT P6SM OVC050
     FM301800 28008KT P6SM BKN035=



000
FTUS41 KPBZ 292300
TAFPIT
TAF
KPIT 292320Z 3000/3106 30010KT P6SM OVC050
     FM301700 28008KT P6SM BKN035=



000
FTUS41 KPBZ 292200 AAA
TAFDUJ
TAF AMD
KDUJ 292210Z 2922/3018 28009KT P6SM OVC035
     FM300300 28006KT P6SM OVC025=



000
FTUS41 KPBZ 292200 AAA
TAFZZV
TAF AMD
KZZV 292209Z 2922/3018 29010KT P6SM BKN035=



000
FTUS41 KPBZ 292200 AAA
TAFLBE
TAF AMD
KLBE 292208Z 2922/3018 28006KT P6SM BKN035=



000
FTUS41 KPBZ 292200 AAA
TAFHLG
TAF AMD
KHLG 292208Z 2922/3018 27010KT P6SM BKN035=



000
FTUS41 KPBZ 292100 AAC
TAFPIT
TAF AMD
KPIT 292154Z 2922/3024 28010KT P6SM BKN045
     FM301700 27006KT P6SM BKN035=



000
FTUS41 KPBZ 292100 AAA
TAFBVI
TAF AMD
KBVI 292101Z 2921/3018 25010KT P6SM BKN050
     FM300200 28006KT P6SM OVC035
     FM301700 27006KT P6SM BKN035=



000
FTUS41 KPBZ 292000 AAB
TAFPIT
TAF AMD
KPIT 292055Z 2921/3024 28012G20KT P6SM BKN045
     FM300300 28006KT P6SM OVC035
     FM301700 27006KT P6SM BKN035=



000
FTUS41 KPBZ 292000 AAA
TAFMGW
TAF AMD
KMGW 292013Z 2920/3018 25012KT P6SM BKN045
     FM300100 28006KT P6SM OVC040
     FM300600 29005KT P6SM BKN025
     FM301700 27006KT P6SM BKN035=



000
FTUS41 KPBZ 292000 AAA
TAFPIT
TAF AMD
KPIT 292012Z 2920/3024 28012G20KT P6SM BKN045
     FM292300 28006KT P6SM OVC035
     FM300400 29005KT P6SM BKN025
     FM301700 27006KT P6SM BKN035=



000
FTUS41 KPBZ 292000 AAA
TAFAGC
TAF AMD
KAGC 292012Z 2920/3018 28010G18KT P6SM BKN045
     FM292300 28006KT P6SM OVC035
     FM300400 29005KT P6SM BKN025
     FM301700 27006KT P6SM BKN035=



000
FTUS41 KPBZ 291800 CCA
TAFHLG
TAF COR
KHLG 291803Z 2918/3018 27010G20KT P6SM BKN045
     FM292300 28006KT P6SM BKN040
     FM300400 29005KT P6SM BKN025
     FM301700 27006KT P6SM BKN035=



000
FTUS41 KPBZ 291800 CCA
TAFDUJ
TAF COR
KDUJ 291803Z 2918/3018 26012G20KT P6SM BKN035
     FM300100 28006KT P6SM BKN025
     FM300400 30006KT P6SM VCSH OVC015
     FM300800 29005KT 4SM BR OVC008
     FM301300 28005KT P6SM BKN020=



000
FTUS41 KPBZ 291700
TAFMGW
TAF
KMGW 291721Z 2918/3018 25008G16KT P6SM BKN045
     FM300100 28006KT P6SM BKN040
     FM300600 29005KT P6SM BKN025
     FM301700 27006KT P6SM BKN035=



000
FTUS41 KPBZ 291700
TAFPIT
TAF
KPIT 291721Z 2918/3024 25010G20KT P6SM BKN045
     FM292300 28006KT P6SM BKN035
     FM300400 29005KT P6SM BKN025
     FM301700 27006KT P6SM BKN035=



000
FTUS41 KPBZ 291700
TAFZZV
TAF
KZZV 291721Z 2918/3018 27010G20KT P6SM BKN040
     FM292300 28006KT P6SM BKN035=



000
FTUS41 KPBZ 291700
TAFHLG
TAF
KHLG 291721Z 2918/3018 25010G20KT P6SM BKN045
     FM292300 28006KT P6SM BKN040
     FM300400 29005KT P6SM BKN025
     FM301700 27006KT P6SM BKN035=



000
FTUS41 KPBZ 291700
TAFAGC
TAF
KAGC 291721Z 2918/3018 25010G20KT P6SM BKN045
     FM292300 28006KT P6SM BKN035
     FM300400 29005KT P6SM BKN025
     FM301700 27006KT P6SM BKN035=



000
FTUS41 KPBZ 291700
TAFBVI
TAF
KBVI 291721Z 2918/3018 25010G20KT P6SM BKN040
     FM292300 28006KT P6SM BKN035
     FM300400 29005KT P6SM BKN025
     FM301700 27006KT P6SM BKN035=



000
FTUS41 KPBZ 291700
TAFLBE
TAF
KLBE 291721Z 2918/3018 25010G20KT P6SM BKN045
     FM292300 28006KT P6SM BKN040
     FM300400 29005KT P6SM BKN025
     FM301700 27006KT P6SM BKN035=



000
FTUS41 KPBZ 291700
TAFDUJ
TAF
KDUJ 291721Z 2918/3018 24012G20KT P6SM BKN035
     FM300100 28006KT P6SM BKN025
     FM300400 30006KT P6SM VCSH OVC015
     FM300800 29005KT 4SM BR OVC008
     FM301300 28005KT P6SM BKN020=



000
FTUS41 KPBZ 291600 AAD
TAFMGW
TAF AMD
KMGW 291602Z 2916/3012 21006KT P6SM BKN015
     FM291700 23006KT P6SM SCT025 OVC130
     FM291900 26010G16KT P6SM SCT040
     FM300400 28006KT P6SM BKN035=



000
FTUS41 KPBZ 291500 AAA
TAFDUJ
TAF AMD
KDUJ 291503Z 2915/3012 26010G18KT P6SM BKN130
     FM291800 27012G20KT P6SM BKN040
     FM300200 28006KT P6SM BKN025
     FM300900 28006KT P6SM OVC015=



000
FTUS41 KPBZ 291500 AAC
TAFMGW
TAF AMD
KMGW 291502Z 2915/3012 21006KT P6SM BKN028
     FM291600 23006KT P6SM SCT030 OVC130
     FM291700 26010G16KT P6SM BKN150
     FM300400 28006KT P6SM BKN035=



000
FTUS41 KPBZ 291500 AAA
TAFAGC
TAF AMD
KAGC 291500Z 2915/3012 26010G18KT P6SM BKN130
     FM291700 27010G20KT P6SM BKN040
     FM292300 28006KT P6SM BKN035
     FM300500 29006KT P6SM BKN025=



000
FTUS41 KPBZ 291400 AAA
TAFPIT
TAF AMD
KPIT 291459Z 2915/3018 26006KT P6SM BKN130
     FM291700 27010G18KT P6SM BKN040
     FM292300 28006KT P6SM BKN035
     FM300400 29006KT P6SM BKN025=



000
FTUS41 KPBZ 291300 AAB
TAFMGW
TAF AMD
KMGW 291333Z 2914/3012 20005KT P6SM BKN010
     FM291400 20006KT P6SM SCT012 OVC060
      TEMPO 2914/2915 BKN012
     FM291700 26010G16KT P6SM BKN150
     FM300400 28006KT P6SM BKN035=



000
FTUS41 KPBZ 291200 AAA
TAFLBE
TAF AMD
KLBE 291252Z 2913/3012 20006KT P6SM SCT012 BKN150
      TEMPO 2913/2915 BKN012
     FM291600 26010G16KT P6SM BKN040
     FM300000 28006KT P6SM BKN035
     FM300700 29006KT P6SM BKN025=



000
FTUS41 KPBZ 291200 AAA
TAFMGW
TAF AMD
KMGW 291212Z 2912/3012 20005KT P6SM SCT008 OVC060
     FM291600 26010G16KT P6SM BKN040
     FM300400 28006KT P6SM BKN035=



000
FTUS41 KPBZ 291100
TAFDUJ
TAF
KDUJ 291127Z 2912/3012 24007KT P6SM BKN150
     FM291600 25010G16KT P6SM BKN040
     FM300200 28006KT P6SM BKN020=



000
FTUS41 KPBZ 291100
TAFMGW
TAF
KMGW 291127Z 2912/3012 23006KT P6SM BKN150
     FM291600 26010G16KT P6SM BKN040
     FM300400 28006KT P6SM BKN035=



000
FTUS41 KPBZ 291100
TAFZZV
TAF
KZZV 291127Z 2912/3012 23006KT P6SM SCT120
     FM291600 26010G16KT P6SM SCT040
     FM300000 28006KT P6SM BKN040
     FM300800 29003KT 5SM BR SCT030=



000
FTUS41 KPBZ 291100
TAFHLG
TAF
KHLG 291127Z 2912/3012 24008KT P6SM BKN150
     FM291600 26010G16KT P6SM BKN040
     FM300000 28006KT P6SM BKN035
     FM300700 29006KT P6SM BKN025=



000
FTUS41 KPBZ 291100
TAFPIT
TAF
KPIT 291127Z 2912/3018 23006KT P6SM BKN150
     FM291600 26010G16KT P6SM BKN040
     FM300000 28006KT P6SM BKN035
     FM300500 29006KT P6SM BKN025=



000
FTUS41 KPBZ 291100
TAFLBE
TAF
KLBE 291127Z 2912/3012 23006KT P6SM BKN150
     FM291600 26010G16KT P6SM BKN040
     FM300000 28006KT P6SM BKN035
     FM300700 29006KT P6SM BKN025=



000
FTUS41 KPBZ 291100
TAFAGC
TAF
KAGC 291127Z 2912/3012 23006KT P6SM BKN150
     FM291600 26010G16KT P6SM BKN040
     FM300000 28006KT P6SM BKN035
     FM300600 29006KT P6SM BKN025=



000
FTUS41 KPBZ 291100
TAFBVI
TAF
KBVI 291127Z 2912/3012 23006KT P6SM BKN150
     FM291600 26010G16KT P6SM BKN040
     FM300000 28006KT P6SM BKN035
     FM300400 29006KT P6SM BKN025=



000
FTUS41 KPBZ 290900 AAA
TAFAGC
TAF AMD
KAGC 290928Z 2909/3006 22008KT P6SM SCT060 BKN100
     FM291800 27010G16KT P6SM BKN050
     FM300200 28008KT P6SM BKN040=



000
FTUS41 KPBZ 290800 AAA
TAFPIT
TAF AMD
KPIT 290855Z 2909/3012 25006KT P6SM SCT080 BKN150
     FM291800 26010G16KT P6SM BKN050
     FM300000 28008KT P6SM BKN040=



000
FTUS41 KPBZ 290500
TAFDUJ
TAF
KDUJ 290532Z 2906/3006 24006KT P6SM SCT080 BKN120
     FM291700 25010G16KT P6SM BKN050
     FM300200 28006KT P6SM BKN040=



000
FTUS41 KPBZ 290500
TAFMGW
TAF
KMGW 290532Z 2906/3006 26005KT P6SM VCSH SCT015 BKN040 OVC080
      TEMPO 2906/2908 5SM -SHRA BKN025 OVC040
     FM291700 25010KT P6SM BKN050=



000
FTUS41 KPBZ 290500
TAFLBE
TAF
KLBE 290532Z 2906/3006 25006KT P6SM VCSH SCT025 BKN050 OVC080
     FM291700 26010G16KT P6SM BKN050
     FM300000 27008KT P6SM BKN050=



000
FTUS41 KPBZ 290500
TAFZZV
TAF
KZZV 290532Z 2906/3006 25006KT P6SM SCT120
     FM291800 26010G16KT P6SM BKN050
     FM300000 28008KT P6SM BKN050=



000
FTUS41 KPBZ 290500
TAFBVI
TAF
KBVI 290532Z 2906/3006 25007KT P6SM SCT050 BKN100
     FM291800 26010G16KT P6SM BKN050
     FM300000 28008KT P6SM BKN035
      AMD NOT SKED=



000
FTUS41 KPBZ 290500
TAFPIT
TAF
KPIT 290532Z 2906/3012 25007KT P6SM SCT040 BKN100
     FM291800 26010G16KT P6SM BKN050
     FM300000 28008KT P6SM BKN040=



000
FTUS41 KPBZ 290500
TAFHLG
TAF
KHLG 290532Z 2906/3006 26007KT P6SM SCT080 BKN100
     FM291900 25010G16KT P6SM BKN050
     FM300000 28008KT P6SM BKN040=



000
FTUS41 KPBZ 290500
TAFAGC
TAF
KAGC 290532Z 2906/3006 27010G15KT P6SM SCT040 BKN100
     FM291800 27010G16KT P6SM BKN050
     FM300200 28008KT P6SM BKN040=



000
FTUS41 KPBZ 290300 AAB
TAFLBE
TAF AMD
KLBE 290359Z 2904/2924 24008KT P6SM BKN035
     FM290500 27007KT P6SM SCT025 BKN040 OVC080
     FM291500 26010G16KT P6SM BKN050
     FM292200 27008KT P6SM BKN050=



000
FTUS41 KPBZ 290300 AAB
TAFMGW
TAF AMD
KMGW 290358Z 2904/2924 25008KT P6SM -SHRA BKN015 OVC025
     FM290500 26005KT P6SM SCT015 BKN040 OVC080
     FM291500 25010KT P6SM BKN050
     FM292200 27005KT P6SM BKN050=



000
FTUS41 KPBZ 290200 AAA
TAFPIT
TAF AMD
KPIT 290243Z 2903/3006 25007KT P6SM SCT120
     FM291500 26010G16KT P6SM BKN050
     FM292200 28008KT P6SM BKN050=



000
FTUS41 KPBZ 290200 AAA
TAFMGW
TAF AMD
KMGW 290243Z 2903/2924 25008KT P6SM -SHRA BKN035
     FM290500 26005KT P6SM BKN120
     FM291500 25010KT P6SM BKN050
     FM292200 27005KT P6SM BKN050=



000
FTUS41 KPBZ 290200 AAA
TAFDUJ
TAF AMD
KDUJ 290243Z 2903/2924 24008KT P6SM -SHRA OVC015
     FM290500 26007KT P6SM SCT120
     FM291500 26010G16KT P6SM BKN050
     FM292200 28008KT P6SM BKN050=



000
FTUS41 KPBZ 290200 AAA
TAFLBE
TAF AMD
KLBE 290243Z 2903/2924 24008KT 5SM -SHRA BKN035
     FM290500 27007KT P6SM SCT120
     FM291500 26010G16KT P6SM BKN050
     FM292200 27008KT P6SM BKN050=



000
FTUS41 KPBZ 282300
TAFPIT
TAF
KPIT 282338Z 2900/3006 27012G24KT P6SM -SHRA BKN035
     FM290200 26007KT P6SM SCT120
     FM291500 26010G16KT P6SM BKN050
     FM292200 28008KT P6SM BKN050=



000
FTUS41 KPBZ 282300
TAFDUJ
TAF
KDUJ 282338Z 2900/2924 20010G20KT P6SM VCSH BKN050
     FM290100 27012G24KT 4SM -SHRA BKN025
     FM290300 26007KT P6SM SCT120
     FM291500 26010G16KT P6SM BKN050
     FM292200 28008KT P6SM BKN050=



000
FTUS41 KPBZ 282300
TAFLBE
TAF
KLBE 282338Z 2900/2924 20012G24KT P6SM VCSH BKN050
     FM290200 27012G24KT P6SM -SHRA BKN035
     FM290500 27007KT P6SM SCT120
     FM291500 26010G16KT P6SM BKN050
     FM292200 27008KT P6SM BKN050=



000
FTUS41 KPBZ 282300
TAFHLG
TAF
KHLG 282338Z 2900/2924 27012G24KT 3SM -SHRA BKN035
     FM290200 26007KT P6SM SCT120
     FM291500 25010G16KT P6SM BKN050
     FM292200 28008KT P6SM BKN050=



000
FTUS41 KPBZ 282300
TAFAGC
TAF
KAGC 282338Z 2900/2924 24012G24KT P6SM VCSH BKN050
     FM290100 27012G24KT P6SM -SHRA BKN035
     FM290300 26007KT P6SM SCT120
     FM291500 26010G16KT P6SM BKN050
     FM292200 28008KT P6SM BKN050=



000
FTUS41 KPBZ 282300
TAFBVI
TAF
KBVI 282338Z 2900/2924 27012G24KT P6SM -SHRA BKN035
     FM290200 26007KT P6SM SCT120
     FM291500 26010G16KT P6SM BKN050
     FM292200 28008KT P6SM BKN050
      AMD NOT SKED 2901/2911=



000
FTUS41 KPBZ 282300
TAFZZV
TAF
KZZV 282338Z 2900/2924 27012G24KT P6SM BKN035
     FM290100 25005KT P6SM SCT120
     FM291500 26010G16KT P6SM BKN050
     FM292200 28008KT P6SM BKN050=



000
FTUS41 KPBZ 282300
TAFMGW
TAF
KMGW 282338Z 2900/2924 22008KT P6SM VCSH BKN150
     FM290200 27012G20KT P6SM -SHRA BKN035
     FM290500 26005KT P6SM BKN120
     FM291500 25010KT P6SM BKN050
     FM292200 27005KT P6SM BKN050=



000
FTUS41 KPBZ 282200 AAB
TAFLBE
TAF AMD
KLBE 282214Z 2822/2918 20012G24KT P6SM VCSH BKN050
     FM290200 27012G24KT 4SM -SHRA BKN035
     FM290500 26010G20KT P6SM BKN035
     FM290600 27005KT P6SM SCT080
     FM291500 25009KT P6SM BKN050=



000
FTUS41 KPBZ 282200 AAA
TAFHLG
TAF AMD
KHLG 282214Z 2822/2918 22012G24KT P6SM BKN050
     FM290000 27012G24KT 3SM -SHRA BKN035
     FM290200 26010G20KT P6SM BKN035
     FM290600 27005KT P6SM SCT080
     FM291500 25009KT P6SM BKN050=



000
FTUS41 KPBZ 282200 AAA
TAFAGC
TAF AMD
KAGC 282214Z 2822/2918 22012G24KT P6SM VCSH BKN050
     FM290100 27012G24KT 4SM -SHRA BKN035
     FM290300 26010G20KT P6SM BKN035
     FM290600 27005KT P6SM SCT080
     FM291500 25009KT P6SM BKN050=



000
FTUS41 KPBZ 282200 AAA
TAFMGW
TAF AMD
KMGW 282214Z 2822/2918 22012KT P6SM VCSH BKN150
     FM290200 27012G24KT 4SM -SHRA BKN035
     FM290500 26010G20KT P6SM BKN035
     FM290600 27005KT P6SM SCT080
     FM291500 25009KT P6SM BKN050=



000
FTUS41 KPBZ 282200 AAB
TAFPIT
TAF AMD
KPIT 282214Z 2822/2924 22012G24KT P6SM VCSH BKN050
     FM290000 27012G24KT 4SM -SHRA BKN035
     FM290200 26010G20KT P6SM BKN035
     FM290600 27005KT P6SM SCT080
     FM291500 25009KT P6SM BKN050=



000
FTUS41 KPBZ 282200 AAA
TAFBVI
TAF AMD
KBVI 282214Z 2822/2918 21012G24KT P6SM VCSH BKN050
     FM282330 27012G24KT 4SM -SHRA BKN035
     FM290200 26010G20KT P6SM BKN035
     FM290600 27005KT P6SM SCT080
     FM291500 25009KT P6SM BKN050=



000
FTUS41 KPBZ 282200 AAA
TAFDUJ
TAF AMD
KDUJ 282214Z 2822/2918 21010G20KT P6SM VCSH BKN050
     FM290100 27012G24KT 4SM -SHRA BKN035
     FM290300 26010G20KT P6SM BKN035
     FM290600 27005KT P6SM SCT080
     FM291500 25010KT P6SM BKN050=



000
FTUS41 KPBZ 282100 AAA
TAFZZV
TAF AMD
KZZV 282140Z 2822/2918 20010KT P6SM VCSH BKN040
     FM282215 27012G24KT 4SM -SHRA BKN035
     FM290000 26010G20KT P6SM BKN035
     FM290600 27005KT P6SM SCT080
     FM291500 25009KT P6SM BKN050=



000
FTUS41 KPBZ 282100 AAA
TAFLBE
TAF AMD
KLBE 282103Z 2821/2918 21013G26KT P6SM BKN150
     FM282300 23013G26KT 4SM -SHRA BKN035
     FM290500 26010G20KT P6SM BKN035
     FM290600 27005KT P6SM SCT080
     FM291500 25009KT P6SM BKN050=



000
FTUS41 KPBZ 282000 AAA
TAFPIT
TAF AMD
KPIT 282057Z 2821/2924 23012G24KT 4SM -SHRA BKN035
     FM290300 26010G20KT P6SM BKN035
     FM290600 27005KT P6SM SCT080
     FM291500 25009KT P6SM BKN050=



    US Dept of Commerce
    National Oceanic and Atmospheric Administration
    National Weather Service
    1325 East West Highway
    Silver Spring, MD 20910
    Page Author: NWS Internet Services Team
Disclaimer
Information Quality
Credits
Glossary
Privacy Policy
Freedom of Information Act (FOIA)
About Us
Career Opportunities